Time;durP1;ratioP1;P1;durP2;ratioP2;P2;SDS_P1;SDS_P2;PMS_P1;PMS_P2;Temp;Humidity;BMP_temperature;BMP_pressure;BME280_temperature;BME280_humidity;BME280_pressure;Samples;Min_cycle;Max_cycle;Signal;HPM_P1;HPM_P2
2023/12/30 00:01:44;;;;;;;6.07;3.53;;;11.00;99.90;;;;;;5013944;28;20265;-79
2023/12/30 00:04:10;;;;;;;8.50;2.50;;;11.00;99.90;;;;;;5018659;28;20178;-79
2023/12/30 00:06:36;;;;;;;4.53;1.60;;;11.10;99.90;;;;;;5025080;28;20193;-79
2023/12/30 00:09:02;;;;;;;3.90;1.20;;;11.10;99.90;;;;;;5030336;28;20588;-79
2023/12/30 00:11:28;;;;;;;5.33;1.40;;;11.10;99.90;;;;;;5005869;28;20220;-79
2023/12/30 00:13:54;;;;;;;8.02;2.25;;;11.20;99.90;;;;;;5031556;28;20177;-79
2023/12/30 00:16:19;;;;;;;4.30;1.57;;;11.20;99.90;;;;;;5022793;28;20209;-79
2023/12/30 00:18:45;;;;;;;4.83;1.20;;;11.30;99.90;;;;;;5030162;28;20178;-79
2023/12/30 00:21:11;;;;;;;7.00;1.57;;;11.30;99.90;;;;;;5013508;28;20204;-79
2023/12/30 00:23:39;;;;;;;5.60;1.00;;;11.30;99.90;;;;;;5024327;28;20177;-79
2023/12/30 00:26:04;;;;;;;7.60;1.08;;;11.40;99.90;;;;;;5029153;28;20581;-79
2023/12/30 00:28:30;;;;;;;5.03;1.37;;;11.40;99.90;;;;;;5010488;28;20265;-79
2023/12/30 00:30:55;;;;;;;5.90;1.60;;;11.40;99.90;;;;;;5025613;28;20205;-79
2023/12/30 00:33:21;;;;;;;5.17;1.50;;;11.50;99.90;;;;;;5031127;28;20532;-79
2023/12/30 00:35:47;;;;;;;4.27;1.53;;;11.50;99.90;;;;;;5023499;28;20683;-79
2023/12/30 00:38:12;;;;;;;9.23;1.40;;;11.50;99.90;;;;;;5011310;28;20177;-79
2023/12/30 00:40:39;;;;;;;5.40;1.25;;;11.60;99.90;;;;;;5030288;28;20300;-80
2023/12/30 00:43:04;;;;;;;3.20;0.93;;;11.60;99.90;;;;;;5010124;28;20230;-79
2023/12/30 00:45:30;;;;;;;4.33;1.10;;;11.70;99.90;;;;;;4984923;28;20174;-79
2023/12/30 00:47:56;;;;;;;5.23;1.30;;;11.70;99.90;;;;;;5025506;28;20213;-79
2023/12/30 00:50:21;;;;;;;2.80;1.00;;;11.70;99.90;;;;;;5027235;28;20543;-79
2023/12/30 00:52:47;;;;;;;7.17;1.20;;;11.70;99.90;;;;;;5016924;28;20716;-79
2023/12/30 00:55:13;;;;;;;7.03;1.33;;;11.70;99.90;;;;;;5019541;28;20170;-79
2023/12/30 00:57:38;;;;;;;5.20;1.67;;;11.70;99.90;;;;;;5009945;28;20202;-79
2023/12/30 01:00:05;;;;;;;7.33;1.10;;;11.60;99.90;;;;;;4993575;28;20181;-79
2023/12/30 01:02:31;;;;;;;7.72;1.35;;;11.60;99.90;;;;;;5025916;28;20178;-79
2023/12/30 01:04:57;;;;;;;8.17;1.50;;;11.60;99.90;;;;;;5009414;28;20244;-79
2023/12/30 01:07:22;;;;;;;3.87;1.10;;;11.50;99.90;;;;;;5028136;28;20197;-79
2023/12/30 01:09:48;;;;;;;8.57;1.90;;;11.50;99.90;;;;;;5012930;28;20174;-79
2023/12/30 01:12:14;;;;;;;10.90;1.17;;;11.60;99.90;;;;;;5020024;28;20280;-79
2023/12/30 01:14:40;;;;;;;4.50;1.17;;;11.60;99.90;;;;;;5015569;28;20185;-79
2023/12/30 01:17:05;;;;;;;5.90;1.00;;;11.60;99.90;;;;;;5020807;28;21320;-79
2023/12/30 01:19:31;;;;;;;5.20;1.10;;;11.60;99.90;;;;;;5033033;28;20182;-78
2023/12/30 01:21:57;;;;;;;3.60;1.27;;;11.70;99.90;;;;;;5020612;28;20181;-79
2023/12/30 01:24:22;;;;;;;4.93;1.20;;;11.70;99.90;;;;;;5026363;28;20759;-79
2023/12/30 01:26:48;;;;;;;7.23;1.57;;;11.80;99.90;;;;;;5010228;28;20206;-79
2023/12/30 01:29:14;;;;;;;5.63;1.57;;;11.80;99.90;;;;;;5018526;28;20182;-79
2023/12/30 01:31:39;;;;;;;13.93;2.60;;;11.80;99.90;;;;;;5012637;28;20567;-79
2023/12/30 01:34:05;;;;;;;7.47;2.10;;;11.80;99.90;;;;;;5008084;28;20210;-79
2023/12/30 01:36:31;;;;;;;4.03;0.93;;;11.80;99.90;;;;;;4996555;28;20197;-79
2023/12/30 01:38:57;;;;;;;7.35;1.77;;;11.80;99.90;;;;;;5011924;28;20236;-79
2023/12/30 01:41:23;;;;;;;4.70;1.10;;;11.70;99.90;;;;;;5016788;28;20179;-79
2023/12/30 01:43:48;;;;;;;4.47;1.37;;;11.70;99.90;;;;;;5034534;28;20572;-79
2023/12/30 01:46:14;;;;;;;8.43;1.30;;;11.70;99.90;;;;;;5010013;28;20193;-79
2023/12/30 01:48:40;;;;;;;6.17;1.10;;;11.60;99.90;;;;;;5009429;28;20169;-79
2023/12/30 01:51:07;;;;;;;4.40;0.80;;;11.60;99.90;;;;;;5016568;28;20209;-79
2023/12/30 01:53:36;;;;;;;7.15;1.15;;;11.60;99.90;;;;;;5013161;28;20224;-79
2023/12/30 01:56:03;;;;;;;7.30;1.83;;;11.60;99.90;;;;;;5021440;28;20288;-79
2023/12/30 01:58:28;;;;;;;3.42;1.33;;;11.60;99.90;;;;;;5019433;28;20178;-79
2023/12/30 02:00:56;;;;;;;9.77;1.50;;;11.70;99.90;;;;;;5008176;28;20278;-80
2023/12/30 02:03:23;;;;;;;5.63;1.30;;;11.70;99.90;;;;;;5033715;28;20268;-79
2023/12/30 02:05:48;;;;;;;3.47;1.10;;;11.70;99.90;;;;;;5032260;28;20231;-79
2023/12/30 02:08:15;;;;;;;4.60;0.90;;;11.80;99.90;;;;;;5018192;28;20193;-79
2023/12/30 02:10:41;;;;;;;6.53;0.90;;;11.80;99.90;;;;;;5028860;28;20355;-79
2023/12/30 02:13:08;;;;;;;3.80;1.03;;;11.80;99.90;;;;;;5030513;28;20260;-79
2023/12/30 02:15:35;;;;;;;4.57;1.10;;;11.80;99.90;;;;;;5031823;28;20671;-79
2023/12/30 02:18:02;;;;;;;4.10;1.27;;;11.80;99.90;;;;;;5015870;28;20176;-79
2023/12/30 02:20:28;;;;;;;4.57;1.00;;;11.80;99.90;;;;;;5032122;28;20204;-79
2023/12/30 02:22:54;;;;;;;2.42;0.90;;;11.80;99.90;;;;;;5032187;28;20557;-79
2023/12/30 02:25:20;;;;;;;6.45;1.75;;;11.80;99.90;;;;;;5031693;28;20703;-79
2023/12/30 02:27:46;;;;;;;5.33;1.40;;;11.80;99.90;;;;;;5032355;28;20266;-79
2023/12/30 02:30:12;;;;;;;4.70;1.00;;;11.80;99.90;;;;;;5015550;28;20564;-79
2023/12/30 02:32:38;;;;;;;7.72;1.58;;;11.80;99.90;;;;;;5021857;28;20628;-79
2023/12/30 02:35:04;;;;;;;6.43;1.08;;;11.80;99.90;;;;;;5007835;28;20170;-79
2023/12/30 02:37:30;;;;;;;5.50;1.43;;;11.80;99.90;;;;;;5031055;28;20186;-79
2023/12/30 02:39:56;;;;;;;8.50;1.27;;;11.80;99.90;;;;;;5014589;28;20642;-79
2023/12/30 02:42:22;;;;;;;6.10;1.13;;;11.90;99.90;;;;;;5031952;28;20272;-79
2023/12/30 02:44:48;;;;;;;6.13;0.80;;;11.90;99.90;;;;;;5014835;28;20584;-79
2023/12/30 02:47:14;;;;;;;7.40;1.10;;;11.90;99.90;;;;;;5028836;28;20197;-79
2023/12/30 02:49:44;;;;;;;9.23;1.27;;;11.90;99.90;;;;;;5033317;28;20188;-79
2023/12/30 02:52:11;;;;;;;6.85;1.20;;;11.90;99.90;;;;;;5031073;28;20274;-79
2023/12/30 02:54:37;;;;;;;2.90;0.93;;;11.90;99.90;;;;;;5008584;28;20273;-79
2023/12/30 02:57:03;;;;;;;3.57;1.00;;;12.00;99.90;;;;;;5024210;28;20293;-79
2023/12/30 02:59:30;;;;;;;7.28;1.52;;;12.00;99.90;;;;;;5029130;28;20200;-72
2023/12/30 03:01:55;;;;;;;2.42;0.75;;;12.00;99.90;;;;;;5031432;28;20204;-72
2023/12/30 03:04:21;;;;;;;3.70;1.27;;;12.00;99.90;;;;;;5030938;28;20178;-73
2023/12/30 03:06:47;;;;;;;5.40;1.00;;;12.00;99.90;;;;;;5030538;28;20213;-73
2023/12/30 03:09:12;;;;;;;6.07;1.30;;;12.00;99.90;;;;;;4998543;28;20190;-73
2023/12/30 03:11:38;;;;;;;10.47;1.57;;;12.00;99.90;;;;;;5027816;28;20323;-72
2023/12/30 03:14:04;;;;;;;8.97;2.50;;;12.00;99.90;;;;;;5014357;28;20193;-72
2023/12/30 03:16:31;;;;;;;6.30;1.30;;;12.00;99.90;;;;;;5014013;28;20970;-73
2023/12/30 03:18:56;;;;;;;4.18;0.93;;;12.00;99.90;;;;;;5031183;28;20185;-73
2023/12/30 03:21:22;;;;;;;5.93;1.77;;;12.00;99.90;;;;;;5006807;28;20188;-73
2023/12/30 03:23:48;;;;;;;5.03;1.87;;;12.00;99.90;;;;;;5013764;28;20182;-73
2023/12/30 03:26:14;;;;;;;13.20;1.47;;;12.00;99.90;;;;;;5030138;28;21000;-73
2023/12/30 03:28:39;;;;;;;7.83;1.17;;;12.00;99.90;;;;;;5032225;28;20173;-73
2023/12/30 03:31:07;;;;;;;5.80;1.10;;;12.00;99.90;;;;;;5014091;28;20643;-73
2023/12/30 03:33:32;;;;;;;6.25;1.10;;;11.90;99.90;;;;;;5022393;28;20263;-73
2023/12/30 03:35:58;;;;;;;8.00;1.50;;;12.00;99.90;;;;;;5013852;28;20630;-73
2023/12/30 03:38:24;;;;;;;8.02;1.40;;;12.00;99.90;;;;;;5031826;28;20217;-73
2023/12/30 03:40:50;;;;;;;4.87;1.23;;;11.90;99.90;;;;;;5030623;28;20200;-73
2023/12/30 03:43:16;;;;;;;7.13;2.10;;;12.00;99.90;;;;;;5013508;28;20178;-73
2023/12/30 03:45:42;;;;;;;9.30;1.23;;;12.00;99.90;;;;;;5021232;28;20251;-73
2023/12/30 03:48:08;;;;;;;3.23;0.80;;;12.00;99.90;;;;;;5017369;28;20173;-73
2023/12/30 03:50:36;;;;;;;4.70;1.02;;;12.00;99.90;;;;;;4983913;28;20182;-73
2023/12/30 03:53:02;;;;;;;6.18;1.05;;;12.00;99.90;;;;;;4999381;28;20185;-73
2023/12/30 03:55:28;;;;;;;4.03;1.08;;;11.90;99.90;;;;;;5026882;28;20193;-72
2023/12/30 03:57:55;;;;;;;2.58;0.80;;;11.90;99.90;;;;;;5008476;28;20213;-73
2023/12/30 04:00:21;;;;;;;5.80;1.00;;;11.90;99.90;;;;;;5021858;28;20651;-73
2023/12/30 04:02:47;;;;;;;5.77;1.37;;;11.90;99.90;;;;;;5013518;28;20201;-73
2023/12/30 04:05:13;;;;;;;9.00;1.40;;;11.90;99.90;;;;;;4997276;28;20545;-73
2023/12/30 04:07:39;;;;;;;8.03;1.10;;;11.80;99.90;;;;;;5011469;28;20347;-73
2023/12/30 04:10:06;;;;;;;6.23;1.30;;;11.80;99.90;;;;;;5023623;28;20941;-73
2023/12/30 04:12:35;;;;;;;4.63;0.82;;;11.80;99.90;;;;;;5028905;28;21126;-73
2023/12/30 04:15:01;;;;;;;8.68;1.25;;;11.80;99.90;;;;;;5012410;28;20272;-73
2023/12/30 04:17:26;;;;;;;6.30;1.20;;;11.80;99.90;;;;;;5012000;28;20216;-73
2023/12/30 04:19:52;;;;;;;5.83;1.10;;;11.80;99.90;;;;;;4986132;28;20170;-73
2023/12/30 04:22:18;;;;;;;7.67;1.37;;;11.80;99.90;;;;;;5010183;28;20186;-73
2023/12/30 04:24:43;;;;;;;5.67;0.90;;;11.80;99.90;;;;;;5031275;28;20184;-73
2023/12/30 04:27:09;;;;;;;4.70;1.20;;;11.80;99.90;;;;;;5025410;28;20198;-73
2023/12/30 04:29:35;;;;;;;6.60;1.37;;;11.80;99.90;;;;;;5030138;28;20185;-74
2023/12/30 04:32:01;;;;;;;4.80;1.08;;;11.80;99.90;;;;;;5029783;28;20198;-73
2023/12/30 04:34:26;;;;;;;8.80;1.30;;;11.80;99.90;;;;;;5013183;28;20576;-74
2023/12/30 04:36:53;;;;;;;7.70;1.43;;;11.80;99.90;;;;;;5012617;28;20224;-74
2023/12/30 04:39:18;;;;;;;7.43;1.27;;;11.90;99.90;;;;;;5013070;28;20196;-73
2023/12/30 04:41:44;;;;;;;4.50;1.07;;;11.80;99.90;;;;;;5026024;28;20265;-74
2023/12/30 04:44:10;;;;;;;5.00;1.00;;;11.80;99.90;;;;;;5024867;28;20683;-73
2023/12/30 04:46:36;;;;;;;7.13;1.00;;;11.90;99.90;;;;;;5028828;28;20209;-73
2023/12/30 04:49:02;;;;;;;6.30;1.33;;;11.90;99.90;;;;;;5030857;28;20215;-73
2023/12/30 04:51:30;;;;;;;4.35;1.38;;;11.90;99.90;;;;;;4996806;28;20288;-72
2023/12/30 04:53:56;;;;;;;7.32;1.10;;;11.90;99.90;;;;;;5029449;28;20182;-73
2023/12/30 04:56:23;;;;;;;3.57;0.83;;;11.90;99.90;;;;;;5012326;28;20789;-73
2023/12/30 04:58:49;;;;;;;7.80;1.23;;;11.90;99.90;;;;;;5025223;28;20689;-73
2023/12/30 05:01:16;;;;;;;3.97;1.20;;;11.80;99.90;;;;;;5009317;28;20189;-73
2023/12/30 05:03:45;;;;;;;8.50;1.00;;;11.80;99.90;;;;;;5007659;28;20194;-73
2023/12/30 05:06:21;;;;;;;6.38;1.08;;;11.80;99.90;;;;;;5017319;28;20635;-73
2023/12/30 05:08:48;;;;;;;8.25;1.17;;;11.70;99.90;;;;;;5030261;28;20177;-73
2023/12/30 05:11:13;;;;;;;9.02;1.80;;;11.70;99.90;;;;;;5030382;28;20209;-73
2023/12/30 05:13:39;;;;;;;6.20;1.30;;;11.70;99.90;;;;;;5028823;28;20659;-74
2023/12/30 05:16:06;;;;;;;8.77;1.23;;;11.70;99.90;;;;;;5028683;28;20619;-73
2023/12/30 05:18:31;;;;;;;6.90;1.90;;;11.60;99.90;;;;;;5030471;28;20585;-73
2023/12/30 05:20:57;;;;;;;6.07;1.53;;;11.60;99.90;;;;;;5029196;28;20877;-74
2023/12/30 05:23:23;;;;;;;4.90;1.00;;;11.60;99.90;;;;;;5028993;28;20186;-73
2023/12/30 05:25:48;;;;;;;4.30;1.17;;;11.60;99.90;;;;;;5029843;28;20270;-73
2023/12/30 05:28:14;;;;;;;6.77;1.10;;;11.50;99.90;;;;;;5022265;28;20177;-73
2023/12/30 05:30:40;;;;;;;7.30;1.43;;;11.50;99.90;;;;;;5029107;28;20212;-73
2023/12/30 05:33:07;;;;;;;7.00;1.00;;;11.50;99.90;;;;;;5030429;28;20177;-73
2023/12/30 05:35:33;;;;;;;7.57;1.15;;;11.50;99.90;;;;;;5028482;28;21215;-73
2023/12/30 05:37:59;;;;;;;8.23;0.95;;;11.50;99.90;;;;;;5030327;28;20181;-73
2023/12/30 05:40:24;;;;;;;7.30;1.37;;;11.50;99.90;;;;;;5033355;28;20178;-73
2023/12/30 05:42:50;;;;;;;6.30;1.10;;;11.50;99.90;;;;;;5012500;28;20177;-72
2023/12/30 05:45:18;;;;;;;10.80;2.90;;;11.50;99.90;;;;;;5028251;28;20636;-73
2023/12/30 05:47:44;;;;;;;5.45;1.02;;;11.50;99.90;;;;;;5020780;28;20182;-73
2023/12/30 05:50:12;;;;;;;5.70;1.23;;;11.50;99.90;;;;;;5030220;28;20180;-73
2023/12/30 05:52:38;;;;;;;8.23;1.23;;;11.50;99.90;;;;;;5029865;28;20209;-73
2023/12/30 05:55:04;;;;;;;5.68;0.93;;;11.50;99.90;;;;;;5027977;28;20709;-73
2023/12/30 05:57:31;;;;;;;6.93;1.20;;;11.50;99.90;;;;;;5028499;28;20304;-73
2023/12/30 05:59:57;;;;;;;3.58;0.95;;;11.50;99.90;;;;;;5030059;28;20609;-73
2023/12/30 06:02:23;;;;;;;4.30;1.43;;;11.50;99.90;;;;;;5022000;28;20257;-73
2023/12/30 06:04:49;;;;;;;5.00;1.07;;;11.50;99.90;;;;;;5020574;28;20647;-74
2023/12/30 06:07:14;;;;;;;6.77;1.10;;;11.50;99.90;;;;;;5029997;28;20276;-73
2023/12/30 06:09:41;;;;;;;6.13;1.00;;;11.50;99.90;;;;;;5029737;28;20181;-73
2023/12/30 06:12:07;;;;;;;6.10;1.15;;;11.40;99.90;;;;;;5028670;28;20725;-73
2023/12/30 06:14:35;;;;;;;5.85;1.60;;;11.40;99.90;;;;;;5021776;28;20197;-73
2023/12/30 06:17:00;;;;;;;5.78;1.17;;;11.40;99.90;;;;;;5022811;28;20201;-73
2023/12/30 06:19:26;;;;;;;3.60;1.07;;;11.40;99.90;;;;;;5030998;28;20178;-72
2023/12/30 06:21:52;;;;;;;6.20;1.23;;;11.40;99.90;;;;;;5032286;28;20683;-73
2023/12/30 06:24:18;;;;;;;7.80;1.50;;;11.40;99.90;;;;;;5031982;28;20177;-72
2023/12/30 06:26:44;;;;;;;6.03;1.40;;;11.40;99.90;;;;;;5031687;28;20205;-72
2023/12/30 06:29:10;;;;;;;8.70;1.33;;;11.40;99.90;;;;;;5001690;28;20189;-72
2023/12/30 06:31:40;;;;;;;9.30;1.00;;;11.40;99.90;;;;;;5031577;28;20209;-72
2023/12/30 06:34:06;;;;;;;11.30;1.38;;;11.50;99.90;;;;;;5032218;28;20182;-72
2023/12/30 06:36:31;;;;;;;6.73;1.10;;;11.50;99.90;;;;;;5006186;28;20192;-73
2023/12/30 06:38:57;;;;;;;6.30;1.10;;;11.50;99.90;;;;;;5026018;28;20266;-73
2023/12/30 06:41:23;;;;;;;4.30;0.93;;;11.50;99.90;;;;;;5015763;28;20865;-73
2023/12/30 06:43:48;;;;;;;4.27;1.10;;;11.50;99.90;;;;;;5033083;28;20182;-73
2023/12/30 06:46:18;;;;;;;4.07;0.90;;;11.50;99.90;;;;;;5031619;28;20672;-73
2023/12/30 06:48:43;;;;;;;6.63;1.10;;;11.50;99.90;;;;;;5021320;28;20190;-73
2023/12/30 06:51:10;;;;;;;6.63;2.30;;;11.50;99.90;;;;;;5027438;28;20329;-73
2023/12/30 06:53:36;;;;;;;6.88;1.42;;;11.50;99.90;;;;;;5032703;28;20185;-73
2023/12/30 06:56:02;;;;;;;4.65;0.90;;;11.50;99.90;;;;;;5030617;28;20209;-73
2023/12/30 06:58:29;;;;;;;6.17;1.40;;;11.50;99.90;;;;;;5028231;28;20180;-73
2023/12/30 07:00:55;;;;;;;5.70;1.15;;;11.50;99.90;;;;;;5024833;28;20185;-72
2023/12/30 07:03:20;;;;;;;6.93;1.27;;;11.50;99.90;;;;;;5024548;28;20186;-73
2023/12/30 07:05:46;;;;;;;5.73;1.00;;;11.60;99.90;;;;;;5030926;28;20619;-72
2023/12/30 07:08:12;;;;;;;7.20;0.87;;;11.60;99.90;;;;;;5032672;28;20170;-72
2023/12/30 07:10:38;;;;;;;6.50;1.52;;;11.60;99.90;;;;;;5031263;28;20228;-72
2023/12/30 07:13:06;;;;;;;2.95;0.90;;;11.60;99.90;;;;;;5016637;28;20174;-72
2023/12/30 07:15:31;;;;;;;3.40;0.90;;;11.60;99.90;;;;;;5031928;28;20726;-72
2023/12/30 07:17:57;;;;;;;7.97;1.30;;;11.70;99.90;;;;;;5032629;28;20180;-73
2023/12/30 07:20:23;;;;;;;3.80;1.00;;;11.70;99.90;;;;;;5031084;28;20183;-73
2023/12/30 07:22:49;;;;;;;10.53;1.47;;;11.70;99.90;;;;;;5031165;28;20203;-73
2023/12/30 07:25:14;;;;;;;6.03;1.20;;;11.70;99.90;;;;;;5026242;28;20188;-73
2023/12/30 07:27:40;;;;;;;5.53;1.20;;;11.70;99.90;;;;;;5013006;28;20198;-73
2023/12/30 07:30:06;;;;;;;5.20;1.47;;;11.70;99.90;;;;;;5023721;28;20182;-73
2023/12/30 07:32:33;;;;;;;3.50;0.90;;;11.80;99.90;;;;;;5017435;28;20633;-73
2023/12/30 07:34:59;;;;;;;7.13;1.20;;;11.80;99.90;;;;;;5018980;28;20209;-73
2023/12/30 07:37:25;;;;;;;6.30;1.00;;;11.80;99.90;;;;;;5011115;28;20202;-73
2023/12/30 07:39:52;;;;;;;6.73;1.20;;;11.80;99.90;;;;;;5022211;28;20235;-73
2023/12/30 07:42:17;;;;;;;4.47;1.00;;;11.80;99.90;;;;;;5032293;28;20580;-73
2023/12/30 07:44:43;;;;;;;6.53;1.30;;;11.80;99.90;;;;;;5012368;28;20178;-73
2023/12/30 07:47:09;;;;;;;6.50;0.83;;;11.70;99.90;;;;;;5012027;28;20309;-73
2023/12/30 07:49:35;;;;;;;3.23;1.30;;;11.70;99.90;;;;;;5003701;28;20588;-73
2023/12/30 07:52:01;;;;;;;3.78;0.90;;;11.70;99.90;;;;;;5030609;28;20212;-72
2023/12/30 07:54:27;;;;;;;4.90;0.87;;;11.70;99.90;;;;;;5030746;28;20186;-73
2023/12/30 07:56:53;;;;;;;6.80;1.00;;;11.80;99.90;;;;;;5019915;28;20564;-73
2023/12/30 07:59:20;;;;;;;9.25;1.00;;;11.80;99.90;;;;;;5012348;28;20190;-73
2023/12/30 08:01:46;;;;;;;4.30;1.20;;;11.80;99.90;;;;;;5014397;28;20182;-73
2023/12/30 08:04:13;;;;;;;7.60;1.20;;;11.70;99.90;;;;;;5031596;28;21215;-72
2023/12/30 08:06:40;;;;;;;6.53;1.60;;;11.70;99.90;;;;;;5029970;28;20628;-74
2023/12/30 08:09:05;;;;;;;5.20;1.02;;;11.80;99.90;;;;;;5028439;28;20213;-73
2023/12/30 08:11:34;;;;;;;2.63;0.83;;;11.70;99.90;;;;;;5018840;28;20235;-73
2023/12/30 08:13:59;;;;;;;6.18;1.25;;;11.80;99.90;;;;;;5011971;28;20842;-73
2023/12/30 08:16:25;;;;;;;5.43;1.30;;;11.80;99.90;;;;;;5010304;28;20206;-73
2023/12/30 08:18:51;;;;;;;4.53;2.30;;;11.70;99.90;;;;;;5011640;28;20209;-73
2023/12/30 08:21:16;;;;;;;5.03;1.00;;;11.80;99.90;;;;;;5010633;28;20178;-73
2023/12/30 08:23:42;;;;;;;4.57;1.03;;;11.80;99.90;;;;;;5010218;28;20206;-73
2023/12/30 08:26:08;;;;;;;3.40;0.80;;;11.80;99.90;;;;;;5011264;28;20201;-73
2023/12/30 08:28:33;;;;;;;5.03;0.90;;;11.80;99.90;;;;;;5011951;28;20248;-73
2023/12/30 08:31:01;;;;;;;6.87;1.00;;;11.80;99.90;;;;;;5030056;28;20202;-74
2023/12/30 08:33:26;;;;;;;3.00;0.90;;;11.90;99.90;;;;;;5031079;28;20623;-74
2023/12/30 08:35:52;;;;;;;5.87;1.10;;;11.90;99.90;;;;;;5021171;28;20279;-74
2023/12/30 08:38:18;;;;;;;9.50;1.13;;;11.90;99.90;;;;;;5025773;28;20177;-74
2023/12/30 08:40:43;;;;;;;5.10;1.20;;;11.90;99.90;;;;;;5014825;28;20250;-74
2023/12/30 08:43:10;;;;;;;5.33;1.13;;;12.00;99.90;;;;;;5029524;28;20173;-74
2023/12/30 08:45:37;;;;;;;5.07;1.33;;;12.00;99.90;;;;;;5031663;28;20189;-74
2023/12/30 08:48:03;;;;;;;3.53;1.00;;;12.00;99.90;;;;;;5026028;28;20717;-74
2023/12/30 08:50:30;;;;;;;8.93;1.08;;;12.10;99.90;;;;;;5019029;28;20174;-74
2023/12/30 08:52:56;;;;;;;4.47;0.90;;;12.10;99.90;;;;;;5026107;28;20208;-74
2023/12/30 08:55:22;;;;;;;3.83;0.90;;;12.10;99.90;;;;;;5009335;28;20948;-74
2023/12/30 08:57:51;;;;;;;7.23;1.10;;;12.10;99.90;;;;;;5009931;28;20182;-74
2023/12/30 09:00:16;;;;;;;4.13;1.20;;;12.20;99.90;;;;;;5011581;28;20178;-74
2023/12/30 09:02:46;;;;;;;4.47;0.90;;;12.20;99.90;;;;;;5009469;28;20236;-74
2023/12/30 09:05:19;;;;;;;2.15;1.00;;;12.20;99.90;;;;;;5024178;28;20675;-74
2023/12/30 09:07:48;;;;;;;4.95;1.10;;;12.20;99.90;;;;;;5029334;28;20186;-74
2023/12/30 09:10:14;;;;;;;5.93;1.02;;;12.20;99.90;;;;;;5023765;28;20604;-74
2023/12/30 09:12:39;;;;;;;5.50;1.90;;;12.20;99.90;;;;;;5020257;28;20206;-74
2023/12/30 09:15:05;;;;;;;6.40;2.37;;;12.20;99.90;;;;;;5028708;28;20373;-74
2023/12/30 09:17:31;;;;;;;5.28;1.30;;;12.20;99.90;;;;;;5030129;28;20208;-73
2023/12/30 09:19:57;;;;;;;3.70;1.37;;;12.30;99.90;;;;;;5010822;28;20174;-73
2023/12/30 09:22:22;;;;;;;7.10;1.20;;;12.30;99.90;;;;;;5010913;28;20589;-73
2023/12/30 09:24:48;;;;;;;5.03;1.07;;;12.30;99.90;;;;;;5013369;28;20186;-73
2023/12/30 09:27:14;;;;;;;9.50;2.10;;;12.40;99.90;;;;;;5009054;28;20293;-73
2023/12/30 09:29:40;;;;;;;3.80;0.83;;;12.50;99.90;;;;;;5009465;28;20692;-74
2023/12/30 09:32:07;;;;;;;6.23;2.20;;;12.50;99.90;;;;;;5009215;28;20206;-74
2023/12/30 09:34:35;;;;;;;9.87;1.30;;;12.60;99.90;;;;;;5009381;28;20188;-73
2023/12/30 09:37:01;;;;;;;7.43;1.37;;;12.60;99.90;;;;;;5013745;28;20606;-74
2023/12/30 09:39:27;;;;;;;7.40;1.50;;;12.70;99.90;;;;;;5023625;28;20577;-74
2023/12/30 09:41:53;;;;;;;6.83;3.10;;;12.70;99.90;;;;;;5009371;28;20613;-74
2023/12/30 09:44:22;;;;;;;5.90;1.63;;;12.70;99.90;;;;;;5009660;28;21348;-74
2023/12/30 09:46:50;;;;;;;4.65;2.78;;;12.80;99.90;;;;;;5034990;28;20632;-74
2023/12/30 09:49:16;;;;;;;4.33;1.73;;;12.80;99.90;;;;;;5024912;28;20186;-73
2023/12/30 09:51:42;;;;;;;5.70;2.57;;;12.90;99.90;;;;;;5026406;28;20627;-74
2023/12/30 09:54:10;;;;;;;6.47;1.30;;;12.90;99.90;;;;;;5028984;28;20750;-74
2023/12/30 09:56:36;;;;;;;3.63;1.03;;;12.90;99.90;;;;;;5027043;28;20205;-73
2023/12/30 09:59:02;;;;;;;4.07;1.17;;;12.90;99.90;;;;;;5030392;28;20596;-74
2023/12/30 10:01:30;;;;;;;5.73;1.20;;;12.90;99.90;;;;;;5028622;28;20592;-74
2023/12/30 10:03:55;;;;;;;4.47;0.97;;;13.00;99.90;;;;;;5033596;28;20602;-74
2023/12/30 10:06:23;;;;;;;5.57;1.10;;;13.00;99.90;;;;;;5031827;28;20620;-74
2023/12/30 10:08:49;;;;;;;8.53;1.93;;;13.10;99.90;;;;;;5032373;28;20595;-74
2023/12/30 10:11:16;;;;;;;6.47;1.00;;;13.10;99.90;;;;;;5031833;28;20620;-74
2023/12/30 10:13:41;;;;;;;8.20;1.73;;;13.10;99.90;;;;;;5031708;28;20531;-74
2023/12/30 10:16:08;;;;;;;3.97;0.80;;;13.20;99.90;;;;;;5025710;28;20612;-74
2023/12/30 10:18:37;;;;;;;9.33;1.27;;;13.20;99.90;;;;;;5026726;28;20583;-74
2023/12/30 10:21:04;;;;;;;8.43;1.03;;;13.20;99.90;;;;;;5030954;28;20600;-74
2023/12/30 10:23:31;;;;;;;8.33;1.90;;;13.30;99.90;;;;;;5032803;28;20650;-74
2023/12/30 10:25:57;;;;;;;6.03;1.10;;;13.30;99.90;;;;;;5031770;28;20627;-74
2023/12/30 10:28:23;;;;;;;4.63;1.70;;;13.30;99.90;;;;;;5033703;28;20596;-74
2023/12/30 10:31:03;;;;;;;4.43;1.20;;;13.40;99.90;;;;;;5032075;28;20596;-74
2023/12/30 10:33:30;;;;;;;7.10;0.90;;;13.40;99.90;;;;;;5033361;28;20205;-74
2023/12/30 10:35:56;;;;;;;4.57;0.90;;;13.50;99.90;;;;;;5031537;28;20622;-74
2023/12/30 10:38:23;;;;;;;9.30;2.50;;;13.50;99.90;;;;;;5035206;28;20619;-74
2023/12/30 10:40:50;;;;;;;5.37;1.07;;;13.60;99.90;;;;;;5022669;28;20950;-74
2023/12/30 10:43:20;;;;;;;6.83;1.23;;;13.70;99.90;;;;;;5013578;28;20632;-74
2023/12/30 10:45:57;;;;;;;6.07;1.00;;;13.60;99.90;;;;;;5027993;28;20623;-74
2023/12/30 10:48:26;;;;;;;8.37;1.20;;;13.70;99.90;;;;;;5013504;28;20589;-74
2023/12/30 10:50:56;;;;;;;5.10;1.40;;;13.80;99.90;;;;;;5012208;28;20589;-74
2023/12/30 10:53:44;;;;;;;5.13;0.90;;;13.80;99.90;;;;;;5013345;28;20577;-74
2023/12/30 10:56:11;;;;;;;5.87;1.30;;;13.80;99.90;;;;;;5024865;28;21026;-74
2023/12/30 10:58:40;;;;;;;6.00;1.20;;;13.90;99.90;;;;;;5031634;28;20568;-74
2023/12/30 11:01:06;;;;;;;3.90;0.80;;;13.90;99.90;;;;;;5017978;28;20599;-74
2023/12/30 11:03:33;;;;;;;3.47;0.90;;;13.90;99.90;;;;;;5032940;28;20587;-74
2023/12/30 11:06:14;;;;;;;3.50;1.10;;;14.00;99.90;;;;;;5032264;28;20714;-74
2023/12/30 11:08:44;;;;;;;4.63;1.20;;;14.00;99.90;;;;;;5023614;28;20592;-74
2023/12/30 11:11:14;;;;;;;5.70;1.10;;;14.10;99.90;;;;;;5021155;28;21082;-74
2023/12/30 11:13:43;;;;;;;5.23;1.20;;;14.10;99.90;;;;;;5028839;28;20941;-74
2023/12/30 11:16:17;;;;;;;6.47;1.20;;;14.20;99.90;;;;;;5008899;28;20614;-74
2023/12/30 11:18:48;;;;;;;5.07;1.30;;;14.20;99.90;;;;;;5031401;28;20592;-74
2023/12/30 11:21:35;;;;;;;4.60;1.07;;;14.30;99.90;;;;;;5032832;28;20588;-74
2023/12/30 11:24:03;;;;;;;3.40;1.10;;;14.40;99.90;;;;;;5031305;28;20686;-72
2023/12/30 11:26:29;;;;;;;4.43;0.77;;;14.50;99.90;;;;;;5030830;28;20632;-74
2023/12/30 11:29:00;;;;;;;3.70;0.80;;;14.60;99.90;;;;;;5031042;28;20691;-74
2023/12/30 11:31:37;;;;;;;8.87;1.23;;;14.70;99.90;;;;;;5026450;28;21289;-74
2023/12/30 11:34:06;;;;;;;2.60;0.83;;;14.70;99.90;;;;;;5028976;28;21283;-74
2023/12/30 11:36:32;;;;;;;5.50;1.27;;;14.80;99.90;;;;;;5026890;28;21013;-74
2023/12/30 11:38:59;;;;;;;4.53;1.40;;;14.80;99.90;;;;;;5032295;28;20572;-74
2023/12/30 11:41:26;;;;;;;4.20;0.90;;;14.80;99.90;;;;;;5032463;28;20623;-74
2023/12/30 11:43:54;;;;;;;4.07;1.10;;;14.90;99.90;;;;;;5031967;28;20642;-75
2023/12/30 11:46:19;;;;;;;9.33;1.77;;;14.90;99.90;;;;;;5031631;28;20616;-74
2023/12/30 11:48:45;;;;;;;6.80;1.03;;;15.00;99.90;;;;;;5022524;28;20666;-74
2023/12/30 11:51:29;;;;;;;3.40;0.80;;;15.00;99.90;;;;;;5032052;28;20205;-74
2023/12/30 11:53:55;;;;;;;3.97;0.93;;;15.00;99.90;;;;;;5023903;28;20604;-74
2023/12/30 11:56:23;;;;;;;3.33;0.80;;;15.00;99.90;;;;;;5025811;28;20748;-74
2023/12/30 11:58:50;;;;;;;6.23;0.97;;;15.00;99.90;;;;;;5010552;28;20794;-72
2023/12/30 12:01:17;;;;;;;6.30;1.30;;;15.00;99.90;;;;;;5012005;28;20923;-72
2023/12/30 12:03:43;;;;;;;4.87;1.40;;;15.00;99.90;;;;;;5011734;28;20904;-72
2023/12/30 12:06:10;;;;;;;9.07;1.43;;;15.10;99.90;;;;;;4993768;28;20605;-72
2023/12/30 12:08:36;;;;;;;5.67;1.30;;;15.10;99.90;;;;;;5010662;28;20185;-72
2023/12/30 12:11:02;;;;;;;4.13;1.20;;;15.20;99.90;;;;;;5012605;28;20641;-72
2023/12/30 12:13:28;;;;;;;4.60;1.20;;;15.30;99.90;;;;;;5031505;28;20668;-72
2023/12/30 12:15:56;;;;;;;7.10;1.17;;;15.30;99.90;;;;;;5028932;28;20628;-72
2023/12/30 12:18:22;;;;;;;4.50;0.97;;;15.30;99.90;;;;;;5031432;28;20584;-72
2023/12/30 12:20:52;;;;;;;7.87;1.27;;;15.30;99.90;;;;;;5029290;28;20588;-73
2023/12/30 12:23:21;;;;;;;3.90;0.80;;;15.40;99.90;;;;;;5018388;28;20585;-73
2023/12/30 12:25:47;;;;;;;3.00;0.80;;;15.40;99.90;;;;;;5010735;28;20624;-74
2023/12/30 12:28:15;;;;;;;1.90;0.90;;;15.40;99.90;;;;;;5011619;28;20586;-74
2023/12/30 12:30:41;;;;;;;5.33;1.00;;;15.30;99.90;;;;;;5020636;28;20186;-73
2023/12/30 12:33:08;;;;;;;4.30;1.33;;;15.30;99.90;;;;;;5029620;28;20635;-73
2023/12/30 12:35:34;;;;;;;10.47;2.33;;;15.20;99.90;;;;;;5029282;28;20540;-73
2023/12/30 12:38:01;;;;;;;12.83;3.17;;;15.20;99.90;;;;;;5029809;28;20663;-73
2023/12/30 12:40:27;;;;;;;5.00;1.60;;;15.10;99.90;;;;;;5024210;28;20585;-72
2023/12/30 12:42:53;;;;;;;7.37;1.30;;;15.10;99.90;;;;;;5009918;28;20585;-72